Terminal Aerodrome Forecast
Issued by NWS Grand Forks, ND

Home | Current Version | Previous Version | Graphics & Text | Print | Product List | Glossary On
Versions: 1 2 3 4 5 6 7 8 9 10 11 12
000
FTUS43 KFGF 102300
TAFFAR
TAF
KFAR 102320Z 1100/1124 17012KT P6SM BKN060
      TEMPO 1100/1102 5SM -SHRA BR
     FM111500 27007KT P6SM SCT250
     FM111800 31012KT P6SM SCT250=

USA.gov is the U.S. government's official web portal to all federal, state and local government web resources and services.